Burns, Tennessee
Current Conditions -  °F | °C
As of 2:55 PM on Thursday 23 Oct 2014 (Local Time) from KMRC Reporting Station
Clear Clear  
Wind Chill: 66°   Ceiling: Unl
Heat Index: 66°   Visibility: 10mi
Dew Point: 43°   Wind: 5mph
Humidity: 43%   Direction: 60°ENE
Pressure: 30.1"   Gusts: NA
Location:  36.05°N, 87.31°W
Report Text: KMRC 231955Z AUTO 06004KT 10SM CLR 19/06 A3010 RMK
Loading
Personal Weather Stations






























Interactive Weather Map
Tropical Storm Tracking
New forecast layout! Learn more

10-Day Weather Forecast

Advertisements
Track Severe Weather on mobile